Time;durP1;ratioP1;P1;durP2;ratioP2;P2;SDS_P1;SDS_P2;PMS_P1;PMS_P2;Temp;Humidity;BMP_temperature;BMP_pressure;BME280_temperature;BME280_humidity;BME280_pressure;Samples;Min_cycle;Max_cycle;Signal;HPM_P1;HPM_P2
2023/04/08 00:00:05;;;;;;;40.03;17.77;;;;;;;6.59;100.00;102440.91;5094502;28;20107;-75
2023/04/08 00:02:31;;;;;;;32.00;16.83;;;;;;;6.60;100.00;102442.63;5112347;28;20048;-76
2023/04/08 00:04:56;;;;;;;38.65;17.73;;;;;;;6.59;100.00;102440.06;5112630;28;20024;-75
2023/04/08 00:07:21;;;;;;;36.17;16.67;;;;;;;6.60;100.00;102447.91;5112343;28;20030;-75
2023/04/08 00:09:48;;;;;;;36.70;18.00;;;;;;;6.59;100.00;102440.91;5112481;28;20077;-75
2023/04/08 00:12:13;;;;;;;35.17;17.00;;;;;;;6.60;100.00;102442.63;5112528;28;20027;-75
2023/04/08 00:14:40;;;;;;;34.20;17.58;;;;;;;6.60;100.00;102450.56;5112522;28;20101;-75
2023/04/08 00:17:06;;;;;;;40.28;18.70;;;;;;;6.60;100.00;102449.69;5093705;28;20027;-75
2023/04/08 00:19:32;;;;;;;36.28;18.42;;;;;;;6.59;100.00;102440.91;5112357;28;20046;-75
2023/04/08 00:21:58;;;;;;;36.22;18.60;;;;;;;6.60;100.00;102440.00;5116365;28;20020;-74
2023/04/08 00:24:23;;;;;;;34.53;16.92;;;;;;;6.61;100.00;102444.31;5116156;28;20035;-76
2023/04/08 00:26:49;;;;;;;39.47;19.05;;;;;;;6.63;100.00;102444.28;5097963;28;20106;-76
2023/04/08 00:29:14;;;;;;;43.72;19.17;;;;;;;6.62;100.00;102438.13;5115966;28;20096;-75
2023/04/08 00:31:40;;;;;;;37.92;19.30;;;;;;;6.61;100.00;102443.47;5097418;28;20050;-75
2023/04/08 00:34:05;;;;;;;40.40;19.20;;;;;;;6.59;100.00;102442.72;5116781;28;20031;-75
2023/04/08 00:36:31;;;;;;;43.80;20.55;;;;;;;6.58;100.00;102446.28;5115453;28;20385;-75
2023/04/08 00:38:56;;;;;;;40.75;20.15;;;;;;;6.57;100.00;102442.78;5115559;28;20425;-75
2023/04/08 00:41:21;;;;;;;43.45;20.55;;;;;;;6.57;100.00;102445.44;5116174;28;20032;-75
2023/04/08 00:43:47;;;;;;;45.42;19.75;;;;;;;6.58;100.00;102444.47;5115782;28;20325;-76
2023/04/08 00:46:12;;;;;;;43.15;20.83;;;;;;;6.59;100.00;102445.34;5080237;28;20032;-75
2023/04/08 00:48:38;;;;;;;44.55;20.83;;;;;;;6.59;100.00;102448.84;5115629;28;20024;-75
2023/04/08 00:51:03;;;;;;;42.03;20.40;;;;;;;6.57;100.00;102448.06;5096905;28;20371;-75
2023/04/08 00:53:30;;;;;;;43.60;20.60;;;;;;;6.57;100.00;102442.78;5097232;28;20032;-76
2023/04/08 00:55:55;;;;;;;38.88;19.95;;;;;;;6.55;100.00;102449.91;5096402;28;20040;-74
2023/04/08 00:58:21;;;;;;;47.42;21.58;;;;;;;6.55;100.00;102441.13;5097081;28;20035;-75
2023/04/08 01:01:02;;;;;;;45.35;20.13;;;;;;;6.52;100.00;102447.41;5114845;28;20036;-74
2023/04/08 01:03:45;;;;;;;41.17;20.15;;;;;;;6.51;100.00;102456.31;5115271;28;20334;-74
2023/04/08 01:06:31;;;;;;;42.78;20.75;;;;;;;6.51;100.00;102451.00;5115320;28;20055;-74
2023/04/08 01:08:59;;;;;;;44.47;20.58;;;;;;;6.50;100.00;102451.94;5097220;28;20132;-74
2023/04/08 01:11:27;;;;;;;44.03;20.45;;;;;;;6.49;100.00;102458.13;5115815;28;20123;-75
2023/04/08 01:13:55;;;;;;;45.58;21.15;;;;;;;6.48;100.00;102456.44;5115132;28;20416;-77
2023/04/08 01:16:23;;;;;;;43.42;20.77;;;;;;;6.48;100.00;102459.94;5115096;28;20054;-75
2023/04/08 01:18:50;;;;;;;42.33;20.73;;;;;;;6.48;100.00;102459.09;5114866;28;20023;-74
2023/04/08 01:21:19;;;;;;;39.40;20.42;;;;;;;6.48;100.00;102462.59;5096927;28;20032;-74
2023/04/08 01:24:01;;;;;;;46.97;21.05;;;;;;;6.49;100.00;102458.13;5115168;28;20019;-77
2023/04/08 01:26:26;;;;;;;;;;;;;;;6.48;100.00;102459.09;5116016;28;20027;-75
2023/04/08 01:28:59;;;;;;;42.13;20.30;;;;;;;6.48;100.00;102462.59;5115009;28;19908;-75
2023/04/08 01:31:26;;;;;;;44.15;20.15;;;;;;;6.47;100.00;102465.31;5113864;28;20451;-76
2023/04/08 01:33:52;;;;;;;40.30;19.95;;;;;;;6.46;100.00;102459.13;5114511;28;20032;-74
2023/04/08 01:36:20;;;;;;;48.78;21.08;;;;;;;6.46;100.00;102466.22;5114562;28;20424;-75
2023/04/08 01:38:47;;;;;;;44.40;20.63;;;;;;;6.44;100.00;102460.16;5095595;28;20019;-74
2023/04/08 01:41:13;;;;;;;50.53;21.30;;;;;;;6.43;100.00;102461.09;5096178;28;20031;-75
2023/04/08 01:43:40;;;;;;;50.78;21.73;;;;;;;6.43;100.00;102455.78;5114118;28;20319;-74
2023/04/08 01:46:08;;;;;;;48.53;20.40;;;;;;;6.40;100.00;102463.88;5114618;28;20099;-74
2023/04/08 01:48:35;;;;;;;49.10;21.30;;;;;;;6.38;100.00;102458.66;5113949;28;20047;-74
2023/04/08 01:51:03;;;;;;;49.47;22.90;;;;;;;6.36;100.00;102460.53;5114177;28;20032;-75
2023/04/08 01:53:28;;;;;;;48.05;21.10;;;;;;;6.33;100.00;102465.97;5114889;28;20024;-75
2023/04/08 01:56:06;;;;;;;52.25;21.95;;;;;;;6.31;100.00;102466.00;5092281;28;20070;-74
2023/04/08 01:58:38;;;;;;;46.17;20.70;;;;;;;6.28;100.00;102468.78;5093925;28;20027;-75
2023/04/08 02:01:09;;;;;;;47.75;20.60;;;;;;;6.28;100.00;102460.00;5093905;28;20087;-75
2023/04/08 02:03:35;;;;;;;47.10;21.43;;;;;;;6.26;100.00;102468.03;5092134;28;20020;-72
2023/04/08 02:06:00;;;;;;;50.03;21.13;;;;;;;6.25;100.00;102460.16;5093253;28;20538;-74
2023/04/08 02:08:25;;;;;;;45.28;21.23;;;;;;;6.23;100.00;102460.22;5093823;28;20046;-74
2023/04/08 02:10:51;;;;;;;46.22;21.65;;;;;;;6.23;100.00;102465.53;5091965;28;20031;-73
2023/04/08 02:13:16;;;;;;;50.20;21.63;;;;;;;6.22;100.00;102465.59;5092211;28;20020;-75
2023/04/08 02:15:49;;;;;;;52.05;21.98;;;;;;;6.17;100.00;102468.44;5093478;28;20521;-74
2023/04/08 02:18:21;;;;;;;51.78;22.05;;;;;;;6.13;100.00;102472.16;5093089;28;20031;-73
2023/04/08 02:20:49;;;;;;;;;;;;;;;6.06;100.00;102468.94;5093885;28;20024;-74
2023/04/08 02:23:19;;;;;;;46.17;20.15;;;;;;;5.97;100.00;102471.97;5093121;28;19903;-74
2023/04/08 02:25:45;;;;;;;46.45;21.35;;;;;;;5.87;100.00;102471.53;5093248;28;20027;-74
2023/04/08 02:28:12;;;;;;;47.90;21.35;;;;;;;5.81;100.00;102474.44;5092788;28;20061;-75
2023/04/08 02:30:41;;;;;;;52.33;21.92;;;;;;;5.74;100.00;102468.56;5092863;28;20036;-74
2023/04/08 02:33:08;;;;;;;54.53;22.50;;;;;;;5.70;100.00;102474.88;5092306;28;20326;-74
2023/04/08 02:35:35;;;;;;;54.90;23.33;;;;;;;5.69;100.00;102477.59;5093214;28;20035;-74
2023/04/08 02:38:00;;;;;;;54.10;22.50;;;;;;;5.67;100.00;102471.53;5093471;28;20038;-74
2023/04/08 02:40:31;;;;;;;56.63;23.00;;;;;;;5.63;100.00;102471.69;5092320;28;20028;-75
2023/04/08 02:42:57;;;;;;;57.58;22.60;;;;;;;5.61;100.00;102470.00;5093122;28;20024;-74
2023/04/08 02:45:27;;;;;;;50.38;21.38;;;;;;;5.58;100.00;102468.38;5091317;28;20457;-74
2023/04/08 02:47:52;;;;;;;51.60;22.27;;;;;;;5.55;100.00;102470.28;5093245;28;20040;-74
2023/04/08 02:50:17;;;;;;;59.03;23.63;;;;;;;5.54;100.00;102477.38;5092867;28;20538;-74
2023/04/08 02:52:43;;;;;;;65.82;23.77;;;;;;;5.54;100.00;102472.09;5092810;28;20483;-74
2023/04/08 02:55:10;;;;;;;58.25;22.33;;;;;;;5.53;100.00;102483.56;5096248;28;20469;-74
2023/04/08 02:57:39;;;;;;;57.47;22.42;;;;;;;5.53;100.00;102480.06;5113659;28;20062;-74
2023/04/08 03:00:06;;;;;;;59.08;22.08;;;;;;;5.51;100.00;102477.50;5113352;28;20084;-75
2023/04/08 03:02:31;;;;;;;63.05;23.83;;;;;;;5.51;100.00;102476.63;5095413;28;20028;-74
2023/04/08 03:04:57;;;;;;;58.08;23.27;;;;;;;5.51;100.00;102484.53;5113799;28;20034;-75
2023/04/08 03:07:22;;;;;;;59.83;23.17;;;;;;;5.50;100.00;102483.69;5095016;28;20399;-75
2023/04/08 03:09:48;;;;;;;53.95;22.05;;;;;;;5.53;100.00;102490.63;5113376;28;20066;-75
2023/04/08 03:12:13;;;;;;;54.42;20.95;;;;;;;5.54;100.00;102489.69;5113166;28;20030;-74
2023/04/08 03:14:38;;;;;;;64.10;23.50;;;;;;;5.56;100.00;102493.13;5094570;28;20042;-74
2023/04/08 03:17:04;;;;;;;61.22;24.33;;;;;;;5.58;100.00;102493.91;5112728;28;20377;-74
2023/04/08 03:19:29;;;;;;;58.17;22.48;;;;;;;5.57;100.00;102492.19;5113079;28;20452;-73
2023/04/08 03:21:55;;;;;;;66.25;24.42;;;;;;;5.59;100.00;102491.22;5113293;28;20451;-74
2023/04/08 03:24:20;;;;;;;63.67;23.98;;;;;;;5.56;100.00;102491.34;5077667;28;20325;-74
2023/04/08 03:26:45;;;;;;;65.88;24.02;;;;;;;5.56;100.00;102499.25;5113291;28;20444;-74
2023/04/08 03:29:11;;;;;;;61.58;23.17;;;;;;;5.53;100.00;102499.41;5112614;28;20070;-74
2023/04/08 03:31:36;;;;;;;61.30;24.00;;;;;;;5.52;100.00;102505.59;5112409;28;20028;-74
2023/04/08 03:34:02;;;;;;;60.70;22.65;;;;;;;5.50;100.00;102502.19;5094372;28;20031;-74
2023/04/08 03:36:27;;;;;;;64.57;23.63;;;;;;;5.50;100.00;102507.47;5113244;28;20036;-74
2023/04/08 03:38:52;;;;;;;62.95;22.88;;;;;;;5.45;100.00;102515.56;5112256;28;20349;-74
2023/04/08 03:41:18;;;;;;;56.95;22.35;;;;;;;5.42;100.00;102509.53;5112215;28;20024;-75
2023/04/08 03:43:43;;;;;;;61.03;22.38;;;;;;;5.37;100.00;102507.09;5112598;28;20060;-75
2023/04/08 03:46:08;;;;;;;61.00;23.88;;;;;;;5.36;100.00;102515.09;5112419;28;20034;-74
2023/04/08 03:48:34;;;;;;;59.63;22.33;;;;;;;5.33;100.00;102515.22;5113078;28;20065;-74
2023/04/08 03:50:59;;;;;;;72.53;24.25;;;;;;;5.32;100.00;102519.66;5112884;28;20372;-74
2023/04/08 03:53:27;;;;;;;66.00;23.77;;;;;;;5.30;100.00;102517.06;5112144;28;20465;-73
2023/04/08 03:55:52;;;;;;;61.58;23.13;;;;;;;5.30;100.00;102517.06;5114381;28;20047;-73
2023/04/08 03:58:17;;;;;;;69.38;24.73;;;;;;;5.29;100.00;102520.63;5116379;28;20341;-74
2023/04/08 04:00:43;;;;;;;68.28;25.15;;;;;;;5.29;100.00;102519.78;5098149;28;20077;-75
2023/04/08 04:03:11;;;;;;;75.07;23.90;;;;;;;5.32;100.00;102524.09;5097641;28;20030;-74
2023/04/08 04:05:37;;;;;;;78.65;24.90;;;;;;;5.30;100.00;102522.34;5099103;28;20047;-74
2023/04/08 04:08:03;;;;;;;61.40;22.55;;;;;;;5.23;100.00;102518.25;5116434;28;20330;-73
2023/04/08 04:10:28;;;;;;;66.00;24.52;;;;;;;5.15;100.00;102524.75;5097710;28;20082;-74
2023/04/08 04:12:53;;;;;;;64.85;23.02;;;;;;;5.07;100.00;102525.91;5115859;28;20036;-74
2023/04/08 04:15:19;;;;;;;67.65;23.20;;;;;;;5.02;100.00;102530.53;5115980;28;20062;-75
2023/04/08 04:17:49;;;;;;;76.78;24.88;;;;;;;5.02;100.00;102533.16;5081001;28;20024;-73
2023/04/08 04:20:16;;;;;;;70.30;24.50;;;;;;;5.07;100.00;102540.91;5115900;28;20027;-74
2023/04/08 04:22:41;;;;;;;74.22;25.38;;;;;;;5.13;100.00;102532.72;5115725;28;20050;-73
2023/04/08 04:25:08;;;;;;;84.88;25.42;;;;;;;5.22;100.00;102545.53;5115977;28;20452;-74
2023/04/08 04:27:34;;;;;;;72.00;24.00;;;;;;;5.28;100.00;102544.44;5115906;28;20107;-74
2023/04/08 04:30:00;;;;;;;77.65;24.08;;;;;;;5.34;100.00;102551.25;5115797;28;20109;-74
2023/04/08 04:32:25;;;;;;;83.53;26.27;;;;;;;5.42;100.00;102555.31;5115414;28;20031;-73
2023/04/08 04:34:51;;;;;;;79.00;25.23;;;;;;;5.46;100.00;102558.66;5116198;28;20474;-74
2023/04/08 04:37:17;;;;;;;78.22;25.25;;;;;;;5.52;100.00;102553.13;5115756;28;20024;-74
2023/04/08 04:39:42;;;;;;;74.68;25.10;;;;;;;5.56;100.00;102559.16;5116210;28;20055;-74
2023/04/08 04:42:08;;;;;;;77.50;25.80;;;;;;;5.58;100.00;102555.53;5080492;28;20132;-74
2023/04/08 04:44:33;;;;;;;85.70;25.58;;;;;;;5.62;100.00;102553.59;5097486;28;20024;-74
2023/04/08 04:46:59;;;;;;;73.82;25.63;;;;;;;5.65;100.00;102556.13;5097936;28;20522;-74
2023/04/08 04:49:24;;;;;;;74.85;24.00;;;;;;;5.66;100.00;102560.47;5115837;28;20028;-74
2023/04/08 04:51:50;;;;;;;85.50;25.60;;;;;;;5.68;100.00;102563.06;5096899;28;20401;-73
2023/04/08 04:54:15;;;;;;;76.47;24.92;;;;;;;5.69;100.00;102562.13;5115297;28;20028;-73
2023/04/08 04:56:40;;;;;;;82.47;25.60;;;;;;;5.67;100.00;102570.09;5115588;28;20126;-76
2023/04/08 04:59:07;;;;;;;82.35;26.58;;;;;;;5.63;100.00;102566.75;5096949;28;20112;-74
2023/04/08 05:01:33;;;;;;;73.82;26.23;;;;;;;5.59;100.00;102569.59;5115488;28;20413;-73
2023/04/08 05:03:58;;;;;;;80.47;26.58;;;;;;;5.55;100.00;102562.72;5115172;28;20026;-73
2023/04/08 05:06:23;;;;;;;71.85;24.50;;;;;;;5.52;100.00;102576.88;5096701;28;20028;-73
2023/04/08 05:08:50;;;;;;;74.70;25.55;;;;;;;5.50;100.00;102569.97;5115074;28;20050;-74
2023/04/08 05:11:17;;;;;;;83.97;26.38;;;;;;;5.50;100.00;102573.47;5115243;28;20099;-74
2023/04/08 05:13:43;;;;;;;79.72;26.80;;;;;;;5.54;100.00;102576.81;5114906;28;20039;-73
2023/04/08 05:16:08;;;;;;;84.35;26.85;;;;;;;5.58;100.00;102583.69;5114876;28;20570;-74
2023/04/08 05:18:33;;;;;;;91.25;26.55;;;;;;;5.61;100.00;102589.72;5114700;28;20020;-74
2023/04/08 05:20:59;;;;;;;93.22;29.58;;;;;;;5.65;100.00;102582.53;5096524;28;20115;-73
2023/04/08 05:23:24;;;;;;;90.68;28.10;;;;;;;5.68;100.00;102576.25;5114926;28;20027;-73
2023/04/08 05:25:50;;;;;;;89.13;27.85;;;;;;;5.71;100.00;102584.06;5114504;28;20023;-73
2023/04/08 05:28:15;;;;;;;92.70;30.30;;;;;;;5.73;100.00;102582.19;5115088;28;20361;-74
2023/04/08 05:30:40;;;;;;;96.20;31.05;;;;;;;5.76;100.00;102585.59;5114592;28;20031;-75
2023/04/08 05:33:06;;;;;;;103.13;30.05;;;;;;;5.81;100.00;102588.03;5114170;28;20119;-73
2023/04/08 05:35:31;;;;;;;98.03;30.45;;;;;;;5.85;100.00;102594.03;5114181;28;20492;-73
2023/04/08 05:37:57;;;;;;;92.20;28.65;;;;;;;5.87;100.00;102589.53;5114205;28;20061;-73
2023/04/08 05:40:22;;;;;;;84.43;29.05;;;;;;;5.92;100.00;102598.13;5114249;28;20449;-73
2023/04/08 05:42:48;;;;;;;74.13;27.52;;;;;;;5.94;100.00;102605.06;5114273;28;20023;-74
2023/04/08 05:45:13;;;;;;;79.68;27.23;;;;;;;5.94;100.00;102605.06;5095871;28;20031;-75
2023/04/08 05:47:38;;;;;;;75.78;26.80;;;;;;;5.96;100.00;102613.78;5114565;28;20033;-74
2023/04/08 05:50:04;;;;;;;81.20;27.33;;;;;;;5.96;100.00;102615.56;5113993;28;20059;-74
2023/04/08 05:52:30;;;;;;;74.72;25.50;;;;;;;5.95;100.00;102619.97;5095783;28;20027;-74
2023/04/08 05:54:55;;;;;;;79.43;26.13;;;;;;;5.93;100.00;102621.84;5113873;28;20031;-74
2023/04/08 05:57:21;;;;;;;82.30;26.83;;;;;;;5.93;100.00;102621.00;5114666;28;20473;-74
2023/04/08 05:59:46;;;;;;;75.65;27.05;;;;;;;5.95;100.00;102624.41;5113791;28;20032;-74
2023/04/08 06:02:11;;;;;;;80.80;28.52;;;;;;;5.96;100.00;102620.88;5114397;28;20046;-73
2023/04/08 06:04:37;;;;;;;86.75;28.45;;;;;;;6.01;100.00;102634.75;5114344;28;20024;-73
2023/04/08 06:07:03;;;;;;;76.85;27.02;;;;;;;6.03;100.00;102632.03;5114152;28;20028;-74
2023/04/08 06:09:28;;;;;;;83.57;29.52;;;;;;;6.09;100.00;102632.66;5113758;28;20146;-73
2023/04/08 06:11:55;;;;;;;78.30;29.05;;;;;;;6.17;100.00;102637.63;5113524;28;20024;-74
2023/04/08 06:14:21;;;;;;;71.47;28.38;;;;;;;6.21;100.00;102636.56;5113438;28;20035;-75
2023/04/08 06:16:46;;;;;;;80.65;28.13;;;;;;;6.28;100.00;102637.13;5113696;28;20356;-73
2023/04/08 06:19:11;;;;;;;77.68;29.50;;;;;;;6.30;100.00;102637.91;5113105;28;20019;-74
2023/04/08 06:21:37;;;;;;;77.18;28.90;;;;;;;6.37;100.00;102633.22;5113755;28;20067;-74
2023/04/08 06:24:02;;;;;;;68.00;27.92;;;;;;;6.45;100.00;102642.56;5113441;28;20180;-73
2023/04/08 06:26:27;;;;;;;71.90;27.52;;;;;;;6.53;100.00;102636.91;5113306;28;20079;-74
2023/04/08 06:28:53;;;;;;;57.00;25.70;;;;;;;6.65;100.00;102646.94;5095412;28;20034;-74
2023/04/08 06:31:18;;;;;;;62.67;27.33;;;;;;;6.74;100.00;102645.66;5113150;28;20124;-73
2023/04/08 06:33:44;;;;;;;64.07;26.15;;;;;;;6.84;100.00;102654.91;5113238;28;20030;-74
2023/04/08 06:36:12;;;;;;;65.93;26.95;;;;;;;6.93;100.00;102658.91;5095623;28;20357;-74
2023/04/08 06:38:37;;;;;;;56.58;26.65;;;;;;;7.01;100.00;102658.56;5113189;28;20104;-74
2023/04/08 06:41:03;;;;;;;55.83;26.10;;;;;;;7.11;100.00;102664.28;5112943;28;20452;-73
2023/04/08 06:43:29;;;;;;;56.47;24.83;;;;;;;7.22;100.00;102662.81;5113546;28;20055;-74
2023/04/08 06:45:55;;;;;;;57.35;25.88;;;;;;;7.28;100.00;102655.53;5113240;28;20349;-73
2023/04/08 06:48:22;;;;;;;55.03;25.38;;;;;;;7.36;100.00;102656.91;5113172;28;20034;-73
2023/04/08 06:50:48;;;;;;;64.35;28.35;;;;;;;7.44;100.00;102672.41;5112872;28;20016;-74
2023/04/08 06:53:13;;;;;;;60.33;25.88;;;;;;;7.58;100.00;102664.66;5113112;28;20373;-73
2023/04/08 06:55:38;;;;;;;54.35;26.15;;;;;;;7.70;100.00;102664.97;5112479;28;20155;-74
2023/04/08 06:58:04;;;;;;;52.80;25.02;;;;;;;7.67;100.00;102673.06;5113059;28;20035;-75
2023/04/08 07:00:29;;;;;;;51.58;24.65;;;;;;;7.65;100.00;102670.50;5094019;28;20039;-75
2023/04/08 07:02:54;;;;;;;56.20;26.27;;;;;;;7.65;100.00;102672.31;5112676;28;20024;-75
2023/04/08 07:05:20;;;;;;;58.40;24.77;;;;;;;7.74;100.00;102678.00;5112655;28;20376;-74
2023/04/08 07:07:45;;;;;;;52.20;25.27;;;;;;;7.89;100.00;102686.97;5094299;28;20346;-75
2023/04/08 07:10:12;;;;;;;48.28;25.63;;;;;;;8.04;100.00;102677.41;5112637;28;20184;-73
2023/04/08 07:12:37;;;;;;;55.95;25.92;;;;;;;8.21;100.00;102679.22;5094222;28;20032;-73
2023/04/08 07:15:03;;;;;;;47.92;24.90;;;;;;;8.41;100.00;102688.78;5112263;28;20028;-74
2023/04/08 07:17:28;;;;;;;43.55;23.48;;;;;;;8.46;100.00;102681.47;5112702;28;20449;-75
2023/04/08 07:19:54;;;;;;;46.22;24.77;;;;;;;8.53;100.00;102686.47;5112650;28;20442;-73
2023/04/08 07:22:20;;;;;;;46.22;24.33;;;;;;;8.53;100.00;102679.34;5112425;28;20039;-73
2023/04/08 07:24:48;;;;;;;46.20;25.15;;;;;;;8.51;100.00;102686.53;5112411;28;20023;-73
2023/04/08 07:27:15;;;;;;;46.13;23.60;;;;;;;8.46;100.00;102692.09;5112687;28;20050;-73
2023/04/08 07:29:41;;;;;;;48.63;25.88;;;;;;;8.34;100.00;102694.47;5113027;28;20047;-73
2023/04/08 07:32:06;;;;;;;44.40;24.77;;;;;;;8.27;100.00;102691.28;5098587;28;20023;-74
2023/04/08 07:34:35;;;;;;;45.22;25.08;;;;;;;8.39;100.00;102700.41;5116832;28;20084;-75
2023/04/08 07:37:00;;;;;;;41.85;23.73;;;;;;;8.62;100.00;102705.41;5098503;28;20020;-73
2023/04/08 07:39:25;;;;;;;38.88;22.27;;;;;;;8.72;100.00;102694.28;5116991;28;20020;-74
2023/04/08 07:41:51;;;;;;;39.65;22.00;;;;;;;8.97;100.00;102705.31;5081094;28;20062;-74
2023/04/08 07:44:16;;;;;;;35.80;21.15;;;;;;;9.18;100.00;102703.28;5098270;28;20032;-74
2023/04/08 07:46:44;;;;;;;32.70;21.13;;;;;;;9.37;100.00;102698.75;5098046;28;20429;-74
2023/04/08 07:49:10;;;;;;;36.47;21.98;;;;;;;9.49;100.00;102693.63;5098558;28;20114;-74
2023/04/08 07:51:35;;;;;;;35.15;21.70;;;;;;;9.61;100.00;102701.81;5116556;28;20103;-75
2023/04/08 07:54:00;;;;;;;33.75;21.48;;;;;;;9.82;100.00;102705.94;5116361;28;20034;-74
2023/04/08 07:56:26;;;;;;;30.95;20.38;;;;;;;10.00;100.00;102709.31;5115907;28;20556;-74
2023/04/08 07:58:51;;;;;;;31.73;20.60;;;;;;;9.94;100.00;102706.16;5115643;28;20081;-74
2023/04/08 08:01:21;;;;;;;31.23;20.75;;;;;;;9.84;100.00;102703.19;5097238;28;20066;-74
2023/04/08 08:03:50;;;;;;;32.67;21.25;;;;;;;9.68;100.00;102708.50;5115559;28;20027;-73
2023/04/08 08:06:16;;;;;;;33.30;21.88;;;;;;;9.58;100.00;102699.34;5116196;28;20063;-73
2023/04/08 08:08:41;;;;;;;35.97;21.65;;;;;;;9.40;100.00;102701.25;5116016;28;20051;-75
2023/04/08 08:11:07;;;;;;;36.25;23.48;;;;;;;9.25;100.00;102711.75;5115961;28;20329;-75
2023/04/08 08:13:33;;;;;;;35.63;22.20;;;;;;;9.29;100.00;102708.00;5116242;28;20442;-74
2023/04/08 08:15:58;;;;;;;38.90;23.08;;;;;;;9.95;100.00;102707.88;5115426;28;20461;-75
2023/04/08 08:18:23;;;;;;;33.17;21.20;;;;;;;10.70;100.00;102710.53;5114866;28;20032;-74
2023/04/08 08:20:49;;;;;;;32.53;21.58;;;;;;;11.26;100.00;102714.13;5131353;27;20441;-73
2023/04/08 08:23:14;;;;;;;32.47;20.92;;;;;;;11.61;100.00;102708.34;5116382;28;20055;-74
2023/04/08 08:25:40;;;;;;;28.15;19.30;;;;;;;11.43;100.00;102723.69;5116488;28;20028;-74
2023/04/08 08:28:05;;;;;;;30.80;20.20;;;;;;;11.31;100.00;102721.81;5116347;28;20058;-74
2023/04/08 08:30:30;;;;;;;28.90;19.83;;;;;;;11.13;100.00;102723.00;5097681;28;20032;-72
2023/04/08 08:32:57;;;;;;;29.83;20.23;;;;;;;10.68;100.00;102725.75;5116829;28;20484;-76
2023/04/08 08:35:23;;;;;;;27.50;19.25;;;;;;;10.42;100.00;102738.84;5097918;28;20115;-77
2023/04/08 08:37:49;;;;;;;30.75;20.25;;;;;;;10.45;100.00;102735.09;5116673;28;20055;-75
2023/04/08 08:40:15;;;;;;;28.65;19.23;;;;;;;10.76;100.00;102731.44;5116046;28;20024;-75
2023/04/08 08:42:41;;;;;;;25.20;18.40;;;;;;;10.93;100.00;102730.44;5115765;28;20031;-77
2023/04/08 08:45:07;;;;;;;28.25;18.60;;;;;;;10.97;100.00;102734.59;5116186;28;20027;-74
2023/04/08 08:47:33;;;;;;;27.73;18.27;;;;;;;11.04;100.00;102740.41;5097768;28;20039;-74
2023/04/08 08:49:58;;;;;;;25.45;19.13;;;;;;;11.04;100.00;102738.59;5097728;28;20032;-75
2023/04/08 08:52:24;;;;;;;30.85;20.48;;;;;;;11.35;100.00;102742.00;5116078;28;20469;-74
2023/04/08 08:54:57;;;;;;;26.88;20.13;;;;;;;11.51;100.00;102733.00;5115469;28;20059;-73
2023/04/08 08:57:22;;;;;;;26.42;18.85;;;;;;;11.85;100.00;102736.13;5116136;28;20061;-74
2023/04/08 08:59:48;;;;;;;25.00;19.73;;;;;;;12.60;100.00;102730.22;5115607;28;20517;-73
2023/04/08 09:02:25;;;;;;;26.05;19.23;;;;;;;13.69;100.00;102725.16;5116014;28;20023;-73
2023/04/08 09:04:57;;;;;;;26.02;19.38;;;;;;;15.06;100.00;102727.22;5115447;28;20107;-73
2023/04/08 09:07:27;;;;;;;22.77;18.65;;;;;;;16.08;100.00;102726.97;5096769;28;20051;-73
2023/04/08 09:09:53;;;;;;;23.33;18.10;;;;;;;16.83;100.00;102722.31;5115397;28;20027;-74
2023/04/08 09:12:19;;;;;;;21.02;17.10;;;;;;;17.30;96.08;102724.50;5115260;28;20024;-75
2023/04/08 09:14:45;;;;;;;19.13;16.15;;;;;;;17.95;83.28;102726.75;5115493;28;20020;-75
2023/04/08 09:17:11;;;;;;;19.60;16.02;;;;;;;18.60;81.85;102721.53;5115102;28;20495;-77
2023/04/08 09:19:36;;;;;;;17.95;15.60;;;;;;;19.26;69.58;102716.16;5115170;28;20035;-74
2023/04/08 09:22:11;;;;;;;17.50;14.68;;;;;;;18.66;62.07;102725.47;5115407;28;20020;-74
2023/04/08 09:24:37;;;;;;;18.17;14.48;;;;;;;19.02;65.64;102731.06;5115614;28;20028;-75
2023/04/08 09:27:05;;;;;;;17.45;14.88;;;;;;;18.83;64.89;102729.25;5115254;28;20023;-74
2023/04/08 09:29:32;;;;;;;16.70;14.43;;;;;;;19.03;64.91;102733.63;5097433;28;20027;-74
2023/04/08 09:32:00;;;;;;;18.40;14.55;;;;;;;19.28;61.81;102723.09;5114902;28;20028;-73
2023/04/08 09:34:27;;;;;;;15.63;14.02;;;;;;;19.63;63.00;102731.41;5096993;28;20035;-74
2023/04/08 09:36:53;;;;;;;15.00;13.40;;;;;;;19.86;57.65;102729.97;5115452;28;20030;-73
2023/04/08 09:39:19;;;;;;;14.70;12.60;;;;;;;19.90;57.99;102725.13;5097127;28;20426;-75
2023/04/08 09:41:48;;;;;;;16.23;12.35;;;;;;;20.01;56.37;102732.13;5115301;28;20023;-74
2023/04/08 09:44:18;;;;;;;14.40;12.90;;;;;;;20.30;58.23;102736.41;5115055;28;20031;-77
2023/04/08 09:46:59;;;;;;;14.52;13.02;;;;;;;20.19;56.81;102730.25;5115006;28;20068;-77
2023/04/08 09:49:24;;;;;;;15.02;13.52;;;;;;;19.98;57.59;102730.59;5115328;28;20023;-78
2023/04/08 09:52:19;;;;;;;18.05;12.98;;;;;;;19.97;55.81;102728.88;5115136;28;20119;-75
2023/04/08 09:55:00;;;;;;;14.35;12.85;;;;;;;19.98;56.70;102736.00;5114868;28;20034;-74
2023/04/08 09:58:00;;;;;;;15.35;12.68;;;;;;;19.89;52.23;102731.53;5096545;28;20058;-73
2023/04/08 10:00:37;;;;;;;14.00;12.40;;;;;;;20.02;53.61;102731.13;5044485;28;20067;-74
2023/04/08 10:03:17;;;;;;;16.35;12.90;;;;;;;19.92;54.05;102731.22;5096875;28;20047;-73
2023/04/08 10:05:43;;;;;;;14.82;13.23;;;;;;;20.42;49.92;102727.91;5115205;28;20102;-72
2023/04/08 10:08:09;;;;;;;15.32;13.45;;;;;;;20.20;51.11;102726.56;5115039;28;20088;-73
2023/04/08 10:10:38;;;;;;;15.82;13.25;;;;;;;20.41;49.96;102730.75;5114903;28;20027;-73
2023/04/08 10:13:05;;;;;;;16.17;13.77;;;;;;;20.30;51.60;102722.91;5115004;28;20360;-72
2023/04/08 10:15:39;;;;;;;16.73;14.15;;;;;;;20.32;49.00;102727.16;5114562;28;20034;-74
2023/04/08 10:18:05;;;;;;;16.85;14.05;;;;;;;20.16;50.99;102727.03;5114715;28;20076;-72
2023/04/08 10:20:33;;;;;;;15.48;13.85;;;;;;;20.60;48.63;102724.28;5114388;28;20031;-74
2023/04/08 10:23:09;;;;;;;17.42;13.93;;;;;;;21.04;52.42;102726.91;5114246;28;20363;-73
2023/04/08 10:25:42;;;;;;;16.52;13.48;;;;;;;20.91;48.92;102721.09;5114508;28;20445;-73
2023/04/08 10:28:10;;;;;;;16.45;13.95;;;;;;;21.29;49.11;102714.31;5096392;28;20023;-74
2023/04/08 10:30:38;;;;;;;17.98;14.35;;;;;;;21.56;50.70;102728.63;5114161;28;20027;-73
2023/04/08 10:33:19;;;;;;;15.68;13.88;;;;;;;21.60;50.73;102721.84;5114347;28;20069;-74
2023/04/08 10:35:53;;;;;;;18.60;13.45;;;;;;;21.60;47.78;102721.00;5114046;28;20453;-72
2023/04/08 10:38:19;;;;;;;16.52;13.70;;;;;;;21.82;47.80;102717.63;5114504;28;20101;-74
2023/04/08 10:40:46;;;;;;;18.02;14.02;;;;;;;21.90;48.45;102718.66;5114345;28;20122;-75
2023/04/08 10:43:12;;;;;;;15.02;13.48;;;;;;;21.86;48.58;102718.16;5113697;28;20035;-75
2023/04/08 10:45:41;;;;;;;14.75;13.25;;;;;;;21.93;49.27;102715.59;5113817;28;20035;-76
2023/04/08 10:48:18;;;;;;;15.25;13.75;;;;;;;21.81;46.02;102717.78;5095910;28;20054;-75
2023/04/08 10:50:51;;;;;;;15.32;13.63;;;;;;;22.27;46.91;102720.00;5114191;28;20019;-75
2023/04/08 10:53:24;;;;;;;18.20;12.57;;;;;;;22.15;45.01;102717.66;5114431;28;20100;-73
2023/04/08 10:55:51;;;;;;;15.25;12.15;;;;;;;22.27;45.46;102722.69;5113841;28;20042;-75
2023/04/08 10:58:17;;;;;;;12.98;11.50;;;;;;;22.27;45.44;102714.56;5095467;28;20035;-73
2023/04/08 11:00:42;;;;;;;13.07;11.23;;;;;;;22.49;42.82;102723.88;5113317;28;20065;-73
2023/04/08 11:03:09;;;;;;;15.00;11.48;;;;;;;22.50;41.65;102718.28;5113729;28;20024;-74
2023/04/08 11:05:36;;;;;;;14.35;11.20;;;;;;;22.10;43.06;102708.31;5113927;28;20023;-73
2023/04/08 11:08:03;;;;;;;15.05;11.45;;;;;;;22.42;40.19;102712.88;5113500;28;20020;-73